Terminal Aerodrome Forecast
Issued by NWS

Home | Current Version | Previous Version | Text Only | Print | Product List | Glossary Off
Versions: 1 2 3 4 5 6 7 8 9 10 11 12 13 14 15 16 17 18 19 20 21 22 23

207
FTUS43 KABR 061727
TAFATY
TAF
KATY 061727Z 0618/0718 28027G39KT 1SM -SN BLSN OVC013
      TEMPO 0619/0622 2SM BLSN OVC015
     FM062200 29029G40KT 2SM BLSN VCSH BKN015
     FM070000 29027G38KT 2SM BLSN BKN025
     FM070300 29021G30KT P6SM BKN015
     FM071000 29018G26KT P6SM BKN025
     FM071300 29018G27KT P6SM BKN015=

USA.gov is the U.S. government's official web portal to all federal, state and local government web resources and services.